createdAt,value
2018-03-02T00:02:21.372Z,51.35
2018-03-02T00:04:50.698Z,51.90
2018-03-02T00:07:19.964Z,52.40
2018-03-02T00:09:49.335Z,51.70
2018-03-02T00:12:18.773Z,55.72
2018-03-02T00:14:48.238Z,50.78
2018-03-02T00:17:17.269Z,55.10
2018-03-02T00:19:46.625Z,55.80
2018-03-02T00:22:16.108Z,55.33
2018-03-02T00:24:45.541Z,54.25
2018-03-02T00:27:14.714Z,62.28
2018-03-02T00:29:44.291Z,54.22
2018-03-02T00:32:13.474Z,56.42
2018-03-02T00:34:42.927Z,60.65
2018-03-02T00:37:12.758Z,53.97
2018-03-02T00:39:42.305Z,56.03
2018-03-02T00:42:11.473Z,51.00
2018-03-02T00:44:41.219Z,54.22
2018-03-02T00:47:10.310Z,56.53
2018-03-02T00:49:39.813Z,58.67
2018-03-02T00:52:09.245Z,56.40
2018-03-02T00:54:38.471Z,57.62
2018-03-02T00:57:08.062Z,62.13
2018-03-02T00:59:37.431Z,65.60
2018-03-02T01:02:07.033Z,66.93
2018-03-02T01:04:36.329Z,67.47
2018-03-02T01:07:05.533Z,69.70
2018-03-02T01:09:35.218Z,71.70
2018-03-02T01:12:04.729Z,68.78
2018-03-02T01:14:34.051Z,72.95
2018-03-02T01:17:03.262Z,72.68
2018-03-02T01:19:32.537Z,73.00
2018-03-02T01:22:02.159Z,74.50
2018-03-02T01:24:32.174Z,78.03
2018-03-02T01:27:01.706Z,60.83
2018-03-02T01:29:30.889Z,63.15
2018-03-02T01:32:00.178Z,55.95
2018-03-02T01:34:29.595Z,42.47
2018-03-02T01:36:59.438Z,40.22
2018-03-02T01:39:28.618Z,37.92
2018-03-02T01:41:58.085Z,41.58
2018-03-02T01:44:27.570Z,55.67
2018-03-02T01:46:57.053Z,57.03
2018-03-02T01:49:26.806Z,64.28
2018-03-02T01:51:55.902Z,62.22
2018-03-02T01:54:25.081Z,63.13
2018-03-02T01:56:54.321Z,57.22
2018-03-02T01:59:23.708Z,55.42
2018-03-02T02:01:52.801Z,61.03
2018-03-02T02:04:22.215Z,61.17
2018-03-02T02:06:51.542Z,63.85
2018-03-02T02:09:20.706Z,66.32
2018-03-02T02:11:50.113Z,67.63
2018-03-02T02:14:19.511Z,75.00
2018-03-02T02:16:48.718Z,84.13
2018-03-02T02:19:17.797Z,89.28
2018-03-02T02:21:47.310Z,96.63
2018-03-02T02:24:16.453Z,98.65
2018-03-02T02:26:45.697Z,103.95
2018-03-02T02:29:14.997Z,107.15
2018-03-02T02:31:44.619Z,119.72
2018-03-02T02:34:13.979Z,119.45
2018-03-02T02:36:43.314Z,113.97
2018-03-02T02:39:12.994Z,112.82
2018-03-02T02:41:42.221Z,114.90
2018-03-02T02:44:11.474Z,102.62
2018-03-02T02:46:40.898Z,102.85
2018-03-02T02:49:10.057Z,104.47
2018-03-02T02:51:39.644Z,108.47
2018-03-02T02:54:08.907Z,103.93
2018-03-02T02:56:38.117Z,110.20
2018-03-02T02:59:07.525Z,105.78
2018-03-02T03:01:36.720Z,98.80
2018-03-02T03:04:06.141Z,101.75
2018-03-02T03:06:35.425Z,97.15
2018-03-02T03:09:04.893Z,95.85
2018-03-02T03:11:34.139Z,104.68
2018-03-02T03:14:03.769Z,91.05
2018-03-02T03:16:33.177Z,95.05
2018-03-02T03:19:02.397Z,103.00
2018-03-02T03:21:31.941Z,99.28
2018-03-02T03:24:01.244Z,93.97
2018-03-02T03:26:31.059Z,98.03
2018-03-02T03:29:00.455Z,96.45
2018-03-02T03:31:29.962Z,90.62
2018-03-02T03:33:59.509Z,96.47
2018-03-02T03:36:28.787Z,87.62
2018-03-02T03:38:58.169Z,83.50
2018-03-02T03:41:27.483Z,86.10
2018-03-02T03:43:57.284Z,79.90
2018-03-02T03:46:26.449Z,84.45
2018-03-02T03:48:55.777Z,89.22
2018-03-02T03:51:25.089Z,90.65
2018-03-02T03:53:54.382Z,95.50
2018-03-02T03:56:23.799Z,92.37
2018-03-02T03:58:53.439Z,104.75
2018-03-02T04:01:22.893Z,93.75
2018-03-02T04:03:52.305Z,103.05
2018-03-02T04:06:21.534Z,95.30
2018-03-02T04:08:50.904Z,95.87
2018-03-02T04:11:20.174Z,85.87
2018-03-02T04:13:49.411Z,95.87
2018-03-02T04:16:18.611Z,88.18
2018-03-02T04:18:47.922Z,91.57
2018-03-02T04:21:18.625Z,88.57
2018-03-02T04:23:48.073Z,83.35
2018-03-02T04:26:17.532Z,74.50
2018-03-02T04:28:46.947Z,88.35
2018-03-02T04:31:16.434Z,84.47
2018-03-02T04:33:45.611Z,82.40
2018-03-02T04:36:15.041Z,88.57
2018-03-02T04:38:44.649Z,91.75
2018-03-02T04:41:13.807Z,112.10
2018-03-02T04:43:43.046Z,101.90
2018-03-02T04:46:12.185Z,95.78
2018-03-02T04:48:41.455Z,98.30
2018-03-02T04:51:10.465Z,96.65
2018-03-02T04:53:39.837Z,89.18
2018-03-02T04:56:09.292Z,94.70
2018-03-02T04:58:38.710Z,91.15
2018-03-02T05:01:07.945Z,86.37
2018-03-02T05:03:37.469Z,84.50
2018-03-02T05:06:07.053Z,85.43
2018-03-02T05:08:36.457Z,85.65
2018-03-02T05:11:05.801Z,89.18
2018-03-02T05:13:35.121Z,93.40
2018-03-02T05:16:04.249Z,91.10
2018-03-02T05:18:33.441Z,88.55
2018-03-02T05:21:02.977Z,83.50
2018-03-02T05:23:32.257Z,96.18
2018-03-02T05:26:01.662Z,89.60
2018-03-02T05:28:30.864Z,97.72
2018-03-02T05:31:00.275Z,94.05
2018-03-02T05:33:29.577Z,103.05
2018-03-02T05:35:58.774Z,86.78
2018-03-02T05:38:28.005Z,88.70
2018-03-02T05:40:57.277Z,96.20
2018-03-02T05:43:26.731Z,100.12
2018-03-02T05:45:56.158Z,100.28
2018-03-02T05:48:25.882Z,99.07
2018-03-02T05:50:55.017Z,102.90
2018-03-02T05:53:24.381Z,95.05
2018-03-02T05:55:53.991Z,110.53
2018-03-02T05:58:23.161Z,100.12
2018-03-02T06:00:52.309Z,102.85
2018-03-02T06:03:21.570Z,103.60
2018-03-02T06:05:50.881Z,109.87
2018-03-02T06:08:20.517Z,120.28
2018-03-02T06:10:49.797Z,130.82
2018-03-02T06:13:19.159Z,139.57
2018-03-02T06:15:48.322Z,146.27
2018-03-02T06:18:17.689Z,160.68
2018-03-02T06:20:47.044Z,165.02
2018-03-02T06:23:16.325Z,180.55
2018-03-02T06:25:45.381Z,119.75
2018-03-02T06:28:14.353Z,138.65
2018-03-02T06:30:43.498Z,128.18
2018-03-02T06:33:12.850Z,119.00
2018-03-02T06:35:42.029Z,93.65
2018-03-02T06:38:11.430Z,90.28
2018-03-02T06:40:40.611Z,85.72
2018-03-02T06:43:09.874Z,73.62
2018-03-02T06:45:39.274Z,72.82
2018-03-02T06:48:08.688Z,95.78
2018-03-02T06:50:37.870Z,85.95
2018-03-02T06:53:06.853Z,72.90
2018-03-02T06:55:36.016Z,68.30
2018-03-02T06:58:05.814Z,64.95
2018-03-02T07:00:35.163Z,68.05
2018-03-02T07:03:04.241Z,71.40
2018-03-02T07:05:33.582Z,68.53
2018-03-02T07:08:02.846Z,77.57
2018-03-02T07:10:31.923Z,71.53
2018-03-02T07:13:01.255Z,69.82
2018-03-02T07:15:30.669Z,70.65
2018-03-02T07:17:59.974Z,84.32
2018-03-02T07:20:29.213Z,77.90
2018-03-02T07:22:58.301Z,76.57
2018-03-02T07:25:27.283Z,73.90
2018-03-02T07:27:56.493Z,63.33
2018-03-02T07:30:25.875Z,65.25
2018-03-02T07:32:55.007Z,69.62
2018-03-02T07:35:24.166Z,69.68
2018-03-02T07:37:53.512Z,73.12
2018-03-02T07:40:22.774Z,73.03
2018-03-02T07:42:51.894Z,69.87
2018-03-02T07:45:21.155Z,66.55
2018-03-02T07:47:50.478Z,59.75
2018-03-02T07:50:19.741Z,66.10
2018-03-02T07:52:48.839Z,65.28
2018-03-02T07:55:18.426Z,66.57
2018-03-02T07:57:47.669Z,67.50
2018-03-02T08:00:16.972Z,60.12
2018-03-02T08:02:46.462Z,68.20
2018-03-02T08:05:15.986Z,70.60
2018-03-02T08:07:45.499Z,62.65
2018-03-02T08:10:14.855Z,60.08
2018-03-02T08:12:44.197Z,62.15
2018-03-02T08:15:13.290Z,65.87
2018-03-02T08:17:42.560Z,63.25
2018-03-02T08:20:12.291Z,60.30
2018-03-02T08:22:41.402Z,57.33
2018-03-02T08:25:10.434Z,64.28
2018-03-02T08:27:39.669Z,76.95
2018-03-02T08:30:09.138Z,81.37
2018-03-02T08:32:38.441Z,68.32
2018-03-02T08:35:07.481Z,78.03
2018-03-02T08:37:36.414Z,85.68
2018-03-02T08:40:05.673Z,92.65
2018-03-02T08:42:35.042Z,114.35
2018-03-02T08:45:04.334Z,102.47
2018-03-02T08:47:33.477Z,101.57
2018-03-02T08:50:02.721Z,100.93
2018-03-02T08:52:32.048Z,90.22
2018-03-02T08:55:01.371Z,89.97
2018-03-02T08:57:30.477Z,84.80
2018-03-02T08:59:59.893Z,93.65
2018-03-02T09:02:28.867Z,99.45
2018-03-02T09:04:57.954Z,101.35
2018-03-02T09:07:27.200Z,104.35
2018-03-02T09:09:56.337Z,89.90
2018-03-02T09:12:25.581Z,105.65
2018-03-02T09:14:55.082Z,107.37
2018-03-02T09:17:24.317Z,110.63
2018-03-02T09:19:53.705Z,112.12
2018-03-02T09:22:23.065Z,114.90
2018-03-02T09:24:52.345Z,110.35
2018-03-02T09:27:21.823Z,114.95
2018-03-02T09:29:50.985Z,114.22
2018-03-02T09:32:20.001Z,100.05
2018-03-02T09:34:49.365Z,94.18
2018-03-02T09:37:18.670Z,94.32
2018-03-02T09:39:47.894Z,78.82
2018-03-02T09:42:17.167Z,86.60
2018-03-02T09:44:46.383Z,74.20
2018-03-02T09:47:15.581Z,71.60
2018-03-02T09:49:44.707Z,79.95
2018-03-02T09:52:14.098Z,71.32
2018-03-02T09:54:43.605Z,76.32
2018-03-02T09:57:12.846Z,68.03
2018-03-02T09:59:42.293Z,75.40
2018-03-02T10:02:11.554Z,82.43
2018-03-02T10:04:40.819Z,74.97
2018-03-02T10:07:10.217Z,94.62
2018-03-02T10:09:39.143Z,70.82
2018-03-02T10:12:08.810Z,62.62
2018-03-02T10:14:38.009Z,59.55
2018-03-02T10:17:07.165Z,61.58
2018-03-02T10:19:36.478Z,59.20
2018-03-02T10:22:05.642Z,72.40
2018-03-02T10:24:35.045Z,75.68
2018-03-02T10:27:04.513Z,75.55
2018-03-02T10:29:33.765Z,66.22
2018-03-02T10:32:03.138Z,72.55
2018-03-02T10:34:32.223Z,64.62
2018-03-02T10:37:01.767Z,67.80
2018-03-02T10:39:30.994Z,67.10
2018-03-02T10:42:00.267Z,61.88
2018-03-02T10:44:29.915Z,66.03
2018-03-02T10:46:59.262Z,61.22
2018-03-02T10:49:28.679Z,57.78
2018-03-02T10:51:58.170Z,60.80
2018-03-02T10:54:27.793Z,60.38
2018-03-02T10:56:57.233Z,63.75
2018-03-02T10:59:26.844Z,63.47
2018-03-02T11:01:56.037Z,58.38
2018-03-02T11:04:30.974Z,62.90
2018-03-02T11:07:00.331Z,67.82
2018-03-02T11:09:29.668Z,62.05
2018-03-02T11:11:58.868Z,74.70
2018-03-02T11:14:28.030Z,65.15
2018-03-02T11:16:57.436Z,67.55
2018-03-02T11:19:26.680Z,58.33
2018-03-02T11:21:56.171Z,69.70
2018-03-02T11:24:25.260Z,73.07
2018-03-02T11:26:54.622Z,83.15
2018-03-02T11:29:23.971Z,79.80
2018-03-02T11:31:53.417Z,72.22
2018-03-02T11:34:22.398Z,72.57
2018-03-02T11:36:51.717Z,78.35
2018-03-02T11:39:20.951Z,79.15
2018-03-02T11:41:49.941Z,72.70
2018-03-02T11:44:19.113Z,85.80
2018-03-02T11:46:48.369Z,76.68
2018-03-02T11:49:17.527Z,77.72
2018-03-02T11:51:46.953Z,75.45
2018-03-02T11:54:16.175Z,104.22
2018-03-02T11:56:45.269Z,79.28
2018-03-02T11:59:14.442Z,68.05
2018-03-02T12:01:43.837Z,80.03
2018-03-02T12:04:13.343Z,81.18
2018-03-02T12:06:42.713Z,86.32
2018-03-02T12:09:12.028Z,77.68
2018-03-02T12:11:41.371Z,78.43
2018-03-02T12:14:10.721Z,73.97
2018-03-02T12:16:40.017Z,78.22
2018-03-02T12:19:09.483Z,75.22
2018-03-02T12:21:38.993Z,75.78
2018-03-02T12:24:08.201Z,72.03
2018-03-02T12:26:37.931Z,81.87
2018-03-02T12:29:07.285Z,79.03
2018-03-02T12:31:36.701Z,75.20
2018-03-02T12:34:06.145Z,77.00
2018-03-02T12:36:35.359Z,69.53
2018-03-02T12:39:05.470Z,72.05
2018-03-02T12:41:34.702Z,71.80
2018-03-02T12:44:04.234Z,70.37
2018-03-02T12:46:33.408Z,78.32
2018-03-02T12:49:02.773Z,71.43
2018-03-02T12:51:32.039Z,74.37
2018-03-02T12:54:01.528Z,73.30
2018-03-02T12:56:30.709Z,69.87
2018-03-02T12:59:00.132Z,75.57
2018-03-02T13:01:29.685Z,71.50
2018-03-02T13:03:58.917Z,85.47
2018-03-02T13:06:28.185Z,72.03
2018-03-02T13:08:57.373Z,73.10
2018-03-02T13:11:26.746Z,74.32
2018-03-02T13:13:55.994Z,84.68
2018-03-02T13:16:25.220Z,80.55
2018-03-02T13:18:54.275Z,83.72
2018-03-02T13:21:23.911Z,81.28
2018-03-02T13:23:53.099Z,79.47
2018-03-02T13:26:33.690Z,81.70
2018-03-02T13:29:02.595Z,91.35
2018-03-02T13:31:31.948Z,88.30
2018-03-02T13:34:12.351Z,94.30
2018-03-02T13:36:41.105Z,91.30
2018-03-02T13:39:10.390Z,88.40
2018-03-02T13:41:51.086Z,90.20
2018-03-02T13:44:20.049Z,87.40
2018-03-02T13:46:49.629Z,94.53
2018-03-02T13:49:30.205Z,83.05
2018-03-02T13:51:59.368Z,94.25
2018-03-02T13:54:28.580Z,89.40
2018-03-02T13:57:09.126Z,104.30
2018-03-02T13:59:38.179Z,115.50
2018-03-02T14:02:07.379Z,117.97
2018-03-02T14:04:45.366Z,91.75
2018-03-02T14:07:14.700Z,101.95
2018-03-02T14:09:43.770Z,105.12
2018-03-02T14:12:13.088Z,104.55
2018-03-02T14:14:42.265Z,93.37
2018-03-02T14:17:11.655Z,94.28
2018-03-02T14:19:41.132Z,92.25
2018-03-02T14:22:10.434Z,94.13
2018-03-02T14:24:39.921Z,93.62
2018-03-02T14:27:08.997Z,90.35
2018-03-02T14:29:38.345Z,106.25
2018-03-02T14:32:07.965Z,93.43
2018-03-02T14:34:37.406Z,93.50
2018-03-02T14:37:06.725Z,113.75
2018-03-02T14:39:35.990Z,100.75
2018-03-02T14:42:05.094Z,101.47
2018-03-02T14:44:34.215Z,95.83
2018-03-02T14:47:03.869Z,89.45
2018-03-02T14:49:33.296Z,106.22
2018-03-02T14:52:02.743Z,120.40
2018-03-02T14:54:31.894Z,107.95
2018-03-02T14:57:01.281Z,116.50
2018-03-02T14:59:31.066Z,113.35
2018-03-02T15:02:00.274Z,118.57
2018-03-02T15:04:29.838Z,120.87
2018-03-02T15:06:59.362Z,119.05
2018-03-02T15:09:28.845Z,127.87
2018-03-02T15:11:58.111Z,121.72
2018-03-02T15:14:27.426Z,122.03
2018-03-02T15:16:56.879Z,121.90
2018-03-02T15:19:26.130Z,127.62
2018-03-02T15:21:55.502Z,122.03
2018-03-02T15:24:24.851Z,124.70
2018-03-02T15:26:54.247Z,137.55
2018-03-02T15:29:23.493Z,137.02
2018-03-02T15:31:52.847Z,135.80
2018-03-02T15:34:22.418Z,149.80
2018-03-02T15:36:51.779Z,142.60
2018-03-02T15:39:21.408Z,167.95
2018-03-02T15:41:50.811Z,189.95
2018-03-02T15:44:20.365Z,192.85
2018-03-02T15:46:50.133Z,213.20
2018-03-02T15:49:19.513Z,222.27
2018-03-02T15:51:49.057Z,222.68
2018-03-02T15:54:18.362Z,226.70
2018-03-02T15:56:48.038Z,234.62
2018-03-02T15:59:17.502Z,244.73
2018-03-02T16:01:46.993Z,239.27
2018-03-02T16:04:16.276Z,248.93
2018-03-02T16:06:45.474Z,224.25
2018-03-02T16:09:14.495Z,219.23
2018-03-02T16:11:43.630Z,200.95
2018-03-02T16:14:12.907Z,179.63
2018-03-02T16:16:42.318Z,166.88
2018-03-02T16:19:11.518Z,162.57
2018-03-02T16:21:40.808Z,166.52
2018-03-02T16:24:10.244Z,154.70
2018-03-02T16:26:39.441Z,147.20
2018-03-02T16:29:08.867Z,154.68
2018-03-02T16:31:38.058Z,146.13
2018-03-02T16:34:07.329Z,147.00
2018-03-02T16:36:36.349Z,144.77
2018-03-02T16:39:05.668Z,150.27
2018-03-02T16:41:34.770Z,161.02
2018-03-02T16:44:04.006Z,164.40
2018-03-02T16:46:33.201Z,168.43
2018-03-02T16:49:02.533Z,170.80
2018-03-02T16:51:32.579Z,161.68
2018-03-02T16:54:02.146Z,172.57
2018-03-02T16:56:31.225Z,161.55
2018-03-02T16:59:00.361Z,157.23
2018-03-02T17:01:29.438Z,160.82
2018-03-02T17:03:58.576Z,166.23
2018-03-02T17:06:27.930Z,176.73
2018-03-02T17:08:56.906Z,171.10
2018-03-02T17:11:26.229Z,198.65
2018-03-02T17:13:55.375Z,185.25
2018-03-02T17:16:24.492Z,177.55
2018-03-02T17:18:53.543Z,166.50
2018-03-02T17:21:22.705Z,165.30
2018-03-02T17:23:52.263Z,182.37
2018-03-02T17:26:21.515Z,176.57
2018-03-02T17:28:50.703Z,182.65
2018-03-02T17:31:20.307Z,156.73
2018-03-02T17:33:49.552Z,163.50
2018-03-02T17:36:18.563Z,159.63
2018-03-02T17:38:47.862Z,161.43
2018-03-02T17:41:16.854Z,176.93
2018-03-02T17:43:46.105Z,169.10
2018-03-02T17:46:15.259Z,187.45
2018-03-02T17:48:44.317Z,185.52
2018-03-02T17:51:13.555Z,177.25
2018-03-02T17:53:42.518Z,170.30
2018-03-02T17:56:12.043Z,169.50
2018-03-02T17:58:42.239Z,177.18
2018-03-02T18:01:11.509Z,174.52
2018-03-02T18:03:40.747Z,184.50
2018-03-02T18:06:10.046Z,185.07
2018-03-02T18:08:39.075Z,194.62
2018-03-02T18:11:08.254Z,194.52
2018-03-02T18:13:37.249Z,197.90
2018-03-02T18:16:06.725Z,191.00
2018-03-02T18:18:36.111Z,187.77
2018-03-02T18:21:05.425Z,188.50
2018-03-02T18:23:34.453Z,178.73
2018-03-02T18:26:03.401Z,172.10
2018-03-02T18:28:32.469Z,167.60
2018-03-02T18:31:01.863Z,170.62
2018-03-02T18:33:31.025Z,165.02
2018-03-02T18:36:00.361Z,167.55
2018-03-02T18:38:29.526Z,167.87
2018-03-02T18:40:58.944Z,205.40
2018-03-02T18:43:28.197Z,184.73
2018-03-02T18:45:57.173Z,201.23
2018-03-02T18:48:26.427Z,206.15
2018-03-02T18:50:56.039Z,209.62
2018-03-02T18:53:25.322Z,221.70
2018-03-02T18:55:54.528Z,210.48
2018-03-02T18:58:23.718Z,219.93
2018-03-02T19:00:52.955Z,234.30
2018-03-02T19:03:22.043Z,243.02
2018-03-02T19:05:51.069Z,216.68
2018-03-02T19:08:20.256Z,251.60
2018-03-02T19:10:49.486Z,247.85
2018-03-02T19:13:18.628Z,263.83
2018-03-02T19:15:47.917Z,271.05
2018-03-02T19:18:16.933Z,257.08
2018-03-02T19:20:46.057Z,252.00
2018-03-02T19:23:15.482Z,273.27
2018-03-02T19:25:44.516Z,283.55
2018-03-02T19:28:13.645Z,293.63
2018-03-02T19:30:43.028Z,256.73
2018-03-02T19:33:12.398Z,266.25
2018-03-02T19:35:41.911Z,265.73
2018-03-02T19:38:11.398Z,267.15
2018-03-02T19:40:40.687Z,250.87
2018-03-02T19:43:10.185Z,249.52
2018-03-02T19:45:39.641Z,244.93
2018-03-02T19:48:08.991Z,213.98
2018-03-02T19:50:38.304Z,195.35
2018-03-02T19:53:08.185Z,185.93
2018-03-02T19:55:37.586Z,183.95
2018-03-02T19:58:06.759Z,182.60
2018-03-02T20:00:35.946Z,182.37
2018-03-02T20:03:05.439Z,180.10
2018-03-02T20:05:34.877Z,184.15
2018-03-02T20:08:04.093Z,189.87
2018-03-02T20:10:33.201Z,189.90
2018-03-02T20:13:02.509Z,183.07
2018-03-02T20:15:31.796Z,186.85
2018-03-02T20:18:01.354Z,174.32
2018-03-02T20:20:30.671Z,175.30
2018-03-02T20:23:00.367Z,170.77
2018-03-02T20:25:29.358Z,159.07
2018-03-02T20:27:58.706Z,165.27
2018-03-02T20:30:28.249Z,168.70
2018-03-02T20:32:57.350Z,171.68
2018-03-02T20:35:26.749Z,176.90
2018-03-02T20:37:55.875Z,178.62
2018-03-02T20:40:25.013Z,222.52
2018-03-02T20:42:54.293Z,204.87
2018-03-02T20:45:23.425Z,205.93
2018-03-02T20:47:52.838Z,207.77
2018-03-02T20:50:22.311Z,201.50
2018-03-02T20:52:51.587Z,199.00
2018-03-02T20:55:20.741Z,205.05
2018-03-02T20:57:49.930Z,244.65
2018-03-02T21:00:19.138Z,237.60
2018-03-02T21:02:48.559Z,207.07
2018-03-02T21:05:18.009Z,215.77
2018-03-02T21:07:47.041Z,213.62
2018-03-02T21:10:16.310Z,202.20
2018-03-02T21:12:45.812Z,196.63
2018-03-02T21:15:14.873Z,211.07
2018-03-02T21:17:44.629Z,205.50
2018-03-02T21:20:13.745Z,186.00
2018-03-02T21:22:43.617Z,195.62
2018-03-02T21:25:12.917Z,197.93
2018-03-02T21:27:42.017Z,217.82
2018-03-02T21:30:11.257Z,228.05
2018-03-02T21:32:40.568Z,229.80
2018-03-02T21:35:09.923Z,231.90
2018-03-02T21:37:39.297Z,225.35
2018-03-02T21:40:13.519Z,221.37
2018-03-02T21:42:42.893Z,216.35
2018-03-02T21:45:12.113Z,240.25
2018-03-02T21:47:41.327Z,242.77
2018-03-02T21:50:10.593Z,235.55
2018-03-02T21:52:39.811Z,189.73
2018-03-02T21:55:08.995Z,187.55
2018-03-02T21:57:38.240Z,197.98
2018-03-02T22:00:17.939Z,189.80
2018-03-02T22:02:52.485Z,187.00
2018-03-02T22:05:21.413Z,191.15
2018-03-02T22:07:50.531Z,199.38
2018-03-02T22:10:19.781Z,204.03
2018-03-02T22:12:49.062Z,217.40
2018-03-02T22:15:18.270Z,212.95
2018-03-02T22:17:47.417Z,203.82
2018-03-02T22:20:16.949Z,213.90
2018-03-02T22:22:46.169Z,211.18
2018-03-02T22:25:15.435Z,217.30
2018-03-02T22:27:44.648Z,199.60
2018-03-02T22:30:13.838Z,198.00
2018-03-02T22:32:43.046Z,210.23
2018-03-02T22:35:12.276Z,222.37
2018-03-02T22:37:41.541Z,220.12
2018-03-02T22:40:10.917Z,219.60
2018-03-02T22:42:40.021Z,219.98
2018-03-02T22:45:09.437Z,224.35
2018-03-02T22:47:38.573Z,236.32
2018-03-02T22:50:08.072Z,216.60
2018-03-02T22:52:37.425Z,223.40
2018-03-02T22:55:07.035Z,223.68
2018-03-02T22:57:36.367Z,229.18
2018-03-02T23:00:05.786Z,208.18
2018-03-02T23:02:35.073Z,196.00
2018-03-02T23:05:04.347Z,191.43
2018-03-02T23:07:33.651Z,210.77
2018-03-02T23:10:02.769Z,204.60
2018-03-02T23:12:32.313Z,221.25
2018-03-02T23:15:01.692Z,197.70
2018-03-02T23:17:30.849Z,183.15
2018-03-02T23:20:00.018Z,176.27
2018-03-02T23:22:29.377Z,181.85
2018-03-02T23:24:58.637Z,181.27
2018-03-02T23:27:27.989Z,180.32
2018-03-02T23:29:57.073Z,199.10
2018-03-02T23:32:26.407Z,197.98
2018-03-02T23:34:55.625Z,197.98
2018-03-02T23:37:24.782Z,203.68
2018-03-02T23:39:53.965Z,198.43
2018-03-02T23:42:23.065Z,193.60
2018-03-02T23:44:52.385Z,198.07
2018-03-02T23:47:21.929Z,195.85
2018-03-02T23:49:51.052Z,191.10
2018-03-02T23:52:20.633Z,193.73
2018-03-02T23:54:50.037Z,202.00
2018-03-02T23:57:19.367Z,192.32
2018-03-02T23:59:48.745Z,181.50
